If you wish to contribute or participate in the discussions about articles you are invited to join SKYbrary as a registered user

 Actions

Usiminas Airport

From SKYbrary Wiki

SBIP
Airport
ICAO: SBIP – IATA: IPN
Summary
Name Usiminas Airport
Region South America and Caribbean
Territory Brazil BR.gif
Location Ipatinga, Minas Gerais
Serving Ipatinga
Elevation 238.963 m
784 ft238.963 m
Coordinates 19° 28' 14.02" S, 42° 29' 17.02" W
Runways
Designator Length Width Surface ROPS
5/23 2004 m6,574.803 ft
45 m147.638 ft
ASP /


METAR
Observation SBIP 142100Z 31002KT CAVOK 25/22 Q1013
Station USIMINAS/PARAISO
Date/Time 14 May 2019 21:00:00
Wind direction 310°
Wind speed 02 kts
Lowest cloud amount clouds and visibility OK
Temperature 25°C
Dew point 22°C
Humidity 83%
QNH 1013 hPa
Weather condition n/a

Usiminas Airport, also known as Steel Valley Regional Airport, is the airport serving Ipatinga, Brazil, located in the adjoining municipality of Santana do Paraíso.

Climatology

Tropical savanna climate (Köppen climate classification Aw)

Maps

Terrain

Loading map...

Airport Layout

Loading map...


Accidents & Serious Incidents at or in vicinity of SBIP

None on SKYbrary